Main page
METAR-TAF:

METAR-TAF

Airports :

Luxeuil Air Base

Luxeuil-les-Bains, France

latitude: 47-47N, longitude: 006-21E, elevation: 278 m

Current weather observation

The report was made 32 minutes ago, at 23:30 UTC
Wind 6 kt from the West
Temperature 3°C
Humidity 100%
Pressure 1006 hPa
Visibility: 4200 m
Overcast at a height of 500 ft
light rain, mist

METAR: LFSX 172330Z AUTO 26006KT 4200 -RA BR OVC005 03/03 Q1006

Time: 01:02 (00:02 UTC)


TAF: missing

Weather observations and forecasts of more than 4000 airports (METAR and TAF reports).

The available stations are represented by yellow and red dots on the map.

Hover mouse over dot to see the name of the station.

Then click to see weather observations and forecasts.

To change the map : click on the green buttons with a black cross to zoom in, on the green button with a dash to zoom out, or on the green arrows for adjacent maps.


METAR-TAF: